createdAt,value
2023-03-17T00:01:28.863Z,50.14
2023-03-17T00:04:38.283Z,50.24
2023-03-17T00:07:44.374Z,50.07
2023-03-17T00:10:51.356Z,50.50
2023-03-17T00:13:58.952Z,50.07
2023-03-17T00:17:05.599Z,51.46
2023-03-17T00:20:27.894Z,50.27
2023-03-17T00:23:35.500Z,50.38
2023-03-17T00:26:42.750Z,50.53
2023-03-17T00:29:49.431Z,50.90
2023-03-17T00:33:01.497Z,50.55
2023-03-17T00:36:21.533Z,50.09
2023-03-17T00:39:28.103Z,50.65
2023-03-17T00:42:35.379Z,51.00
2023-03-17T00:45:43.039Z,51.45
2023-03-17T00:48:50.404Z,51.26
2023-03-17T00:51:59.986Z,51.08
2023-03-17T00:55:08.105Z,51.83
2023-03-17T00:58:20.708Z,52.17
2023-03-17T01:01:30.200Z,51.78
2023-03-17T01:04:36.784Z,52.02
2023-03-17T01:07:53.039Z,52.21
2023-03-17T01:10:59.707Z,52.38
2023-03-17T01:14:06.846Z,52.35
2023-03-17T01:17:20.869Z,52.30
2023-03-17T01:20:31.967Z,52.70
2023-03-17T01:23:41.260Z,53.13
2023-03-17T01:26:48.086Z,52.82
2023-03-17T01:29:59.003Z,52.72
2023-03-17T01:33:05.878Z,52.65
2023-03-17T01:36:14.261Z,52.17
2023-03-17T01:39:23.531Z,52.03
2023-03-17T01:42:32.776Z,52.46
2023-03-17T01:46:20.942Z,52.55
2023-03-17T01:49:36.890Z,52.63
2023-03-17T01:52:44.740Z,53.10
2023-03-17T01:55:56.937Z,53.29
2023-03-17T01:59:10.085Z,53.09
2023-03-17T02:02:23.271Z,52.97
2023-03-17T02:05:33.944Z,53.34
2023-03-17T02:08:39.685Z,53.57
2023-03-17T02:11:50.780Z,53.23
2023-03-17T02:14:56.873Z,53.37
2023-03-17T02:18:03.845Z,53.11
2023-03-17T02:21:51.564Z,53.23
2023-03-17T02:25:02.188Z,52.93
2023-03-17T02:28:16.332Z,52.84
2023-03-17T02:31:24.943Z,52.34
2023-03-17T02:34:31.657Z,52.49
2023-03-17T02:37:42.027Z,52.44
2023-03-17T02:40:47.756Z,52.34
2023-03-17T02:43:55.586Z,52.42
2023-03-17T02:47:01.498Z,52.47
2023-03-17T02:50:10.237Z,52.76
2023-03-17T02:53:19.525Z,52.67
2023-03-17T02:56:25.332Z,52.93
2023-03-17T02:59:32.232Z,53.46
2023-03-17T03:02:38.186Z,53.89
2023-03-17T03:05:44.960Z,53.97
2023-03-17T03:08:53.459Z,53.97
2023-03-17T03:12:00.182Z,54.31
2023-03-17T03:15:07.117Z,54.16
2023-03-17T03:18:13.752Z,53.43
2023-03-17T03:21:19.978Z,53.56
2023-03-17T03:24:29.252Z,53.15
2023-03-17T03:27:35.078Z,52.84
2023-03-17T03:30:44.770Z,52.51
2023-03-17T03:33:50.788Z,52.36
2023-03-17T03:36:57.819Z,52.71
2023-03-17T03:40:07.543Z,52.61
2023-03-17T03:43:23.079Z,52.29
2023-03-17T03:46:30.171Z,52.36
2023-03-17T03:49:36.775Z,52.52
2023-03-17T03:52:42.837Z,53.00
2023-03-17T03:55:52.020Z,53.34
2023-03-17T03:58:57.688Z,53.58
2023-03-17T04:02:04.252Z,53.70
2023-03-17T04:05:13.168Z,53.97
2023-03-17T04:08:19.766Z,53.42
2023-03-17T04:11:28.165Z,54.06
2023-03-17T04:14:34.896Z,54.23
2023-03-17T04:17:41.320Z,54.40
2023-03-17T04:20:47.895Z,54.68
2023-03-17T04:23:55.185Z,55.02
2023-03-17T04:27:06.085Z,55.63
2023-03-17T04:30:17.162Z,55.92
2023-03-17T04:33:23.813Z,56.07
2023-03-17T04:36:30.340Z,56.21
2023-03-17T04:39:37.111Z,56.18
2023-03-17T04:42:45.678Z,56.18
2023-03-17T04:45:52.415Z,56.07
2023-03-17T04:48:59.509Z,55.59
2023-03-17T04:52:06.865Z,55.11
2023-03-17T04:55:14.804Z,55.10
2023-03-17T04:58:30.792Z,54.67
2023-03-17T05:01:39.140Z,53.71
2023-03-17T05:04:48.991Z,53.72
2023-03-17T05:07:54.718Z,53.85
2023-03-17T05:11:02.181Z,54.18
2023-03-17T05:14:10.596Z,55.17
2023-03-17T05:17:17.440Z,54.96
2023-03-17T05:20:23.353Z,55.25
2023-03-17T05:23:30.359Z,55.57
2023-03-17T05:26:36.550Z,55.55
2023-03-17T05:29:47.832Z,55.53
2023-03-17T05:32:53.798Z,55.65
2023-03-17T05:36:00.593Z,55.59
2023-03-17T05:39:07.898Z,55.66
2023-03-17T05:42:15.773Z,55.75
2023-03-17T05:45:24.391Z,55.37
2023-03-17T05:48:31.048Z,55.52
2023-03-17T05:51:37.208Z,55.59
2023-03-17T05:54:44.884Z,55.53
2023-03-17T05:57:51.030Z,55.28
2023-03-17T06:01:00.365Z,55.06
2023-03-17T06:04:06.147Z,55.08
2023-03-17T06:07:13.925Z,54.99
2023-03-17T06:10:20.680Z,54.47
2023-03-17T06:13:28.873Z,54.95
2023-03-17T06:16:37.247Z,54.61
2023-03-17T06:19:44.053Z,54.28
2023-03-17T06:23:03.458Z,54.65
2023-03-17T06:26:12.658Z,54.07
2023-03-17T06:29:18.611Z,54.33
2023-03-17T06:32:28.413Z,54.69
2023-03-17T06:35:36.169Z,54.60
2023-03-17T06:38:43.854Z,53.92
2023-03-17T06:41:49.960Z,52.82
2023-03-17T06:44:56.940Z,51.38
2023-03-17T06:48:07.097Z,49.98
2023-03-17T06:51:13.997Z,47.77
2023-03-17T06:54:20.748Z,46.99
2023-03-17T06:57:27.312Z,46.19
2023-03-17T07:00:33.413Z,44.98
2023-03-17T07:03:42.608Z,43.00
2023-03-17T07:06:48.418Z,42.66
2023-03-17T07:09:55.075Z,42.46
2023-03-17T07:13:02.489Z,41.80
2023-03-17T07:16:10.130Z,40.30
2023-03-17T07:19:18.668Z,39.41
2023-03-17T07:22:25.814Z,37.35
2023-03-17T07:25:31.768Z,36.63
2023-03-17T07:28:40.451Z,35.45
2023-03-17T07:31:46.400Z,35.81
2023-03-17T07:34:55.549Z,34.98
2023-03-17T07:38:01.227Z,33.54
2023-03-17T07:41:10.018Z,33.16
2023-03-17T07:44:16.289Z,33.86
2023-03-17T07:47:23.092Z,33.38
2023-03-17T07:50:31.468Z,32.46
2023-03-17T07:53:38.034Z,30.61
2023-03-17T07:56:44.005Z,29.48
2023-03-17T07:59:50.761Z,29.62
2023-03-17T08:03:09.334Z,29.31
2023-03-17T08:06:19.468Z,28.19
2023-03-17T08:09:25.792Z,27.29
2023-03-17T08:12:32.536Z,25.65
2023-03-17T08:15:38.514Z,25.03
2023-03-17T08:18:45.312Z,25.20
2023-03-17T08:21:54.071Z,24.52
2023-03-17T08:25:00.719Z,23.83
2023-03-17T08:28:06.678Z,24.65
2023-03-17T08:31:17.428Z,23.86
2023-03-17T08:34:24.223Z,23.32
2023-03-17T08:37:35.466Z,23.71
2023-03-17T08:40:43.116Z,23.89
2023-03-17T08:43:51.894Z,23.12
2023-03-17T08:46:58.063Z,22.45
2023-03-17T08:50:08.684Z,23.21
2023-03-17T08:53:17.116Z,22.79
2023-03-17T08:56:24.503Z,21.98
2023-03-17T08:59:30.418Z,22.05
2023-03-17T09:02:37.202Z,22.77
2023-03-17T09:05:44.199Z,23.42
2023-03-17T09:08:55.745Z,24.32
2023-03-17T09:12:03.407Z,23.38
2023-03-17T09:15:13.022Z,23.21
2023-03-17T09:18:21.960Z,22.94
2023-03-17T09:21:29.432Z,23.28
2023-03-17T09:24:37.779Z,23.71
2023-03-17T09:27:44.807Z,22.52
2023-03-17T09:30:50.744Z,21.25
2023-03-17T09:33:57.350Z,21.71
2023-03-17T09:37:03.120Z,21.35
2023-03-17T09:40:22.327Z,19.53
2023-03-17T09:43:42.710Z,19.66
2023-03-17T09:47:05.554Z,20.30
2023-03-17T09:50:21.234Z,19.08
2023-03-17T09:53:36.082Z,20.08
2023-03-17T09:56:54.021Z,18.71
2023-03-17T10:00:08.039Z,19.35
2023-03-17T10:03:15.200Z,19.17
2023-03-17T10:06:39.383Z,18.57
2023-03-17T10:10:04.232Z,18.45
2023-03-17T10:13:35.193Z,17.62
2023-03-17T10:16:54.886Z,17.74
2023-03-17T10:20:11.624Z,17.04
2023-03-17T10:23:25.023Z,18.31
2023-03-17T10:26:40.767Z,17.87
2023-03-17T10:29:49.828Z,16.75
2023-03-17T10:33:03.392Z,17.45
2023-03-17T10:36:17.426Z,17.71
2023-03-17T10:39:28.292Z,18.01
2023-03-17T10:42:35.798Z,16.94
2023-03-17T10:46:01.246Z,16.63
2023-03-17T10:52:43.631Z,16.54
2023-03-17T10:55:55.654Z,16.98
2023-03-17T10:59:10.946Z,17.39
2023-03-17T11:02:30.665Z,16.30
2023-03-17T11:05:38.320Z,15.61
2023-03-17T11:08:53.868Z,16.91
2023-03-17T11:12:09.757Z,16.73
2023-03-17T11:15:21.682Z,17.39
2023-03-17T11:18:39.147Z,15.94
2023-03-17T11:22:05.088Z,16.13
2023-03-17T11:25:19.748Z,15.73
2023-03-17T11:28:36.435Z,16.40
2023-03-17T11:32:00.891Z,16.73
2023-03-17T11:35:37.089Z,18.39
2023-03-17T11:39:01.358Z,17.42
2023-03-17T11:42:24.357Z,18.92
2023-03-17T11:45:40.550Z,17.95
2023-03-17T11:49:01.653Z,17.10
2023-03-17T11:52:30.276Z,16.90
2023-03-17T11:55:50.360Z,17.29
2023-03-17T11:59:05.068Z,18.67
2023-03-17T12:02:30.826Z,17.93
2023-03-17T12:05:39.973Z,18.26
2023-03-17T12:09:05.611Z,16.60
2023-03-17T12:12:18.176Z,16.82
2023-03-17T12:15:37.290Z,16.43
2023-03-17T12:18:58.105Z,17.39
2023-03-17T12:22:19.560Z,17.38
2023-03-17T12:25:37.027Z,16.93
2023-03-17T12:28:55.643Z,15.94
2023-03-17T12:32:09.967Z,17.00
2023-03-17T12:35:32.330Z,17.18
2023-03-17T12:38:46.710Z,17.14
2023-03-17T12:42:19.572Z,16.57
2023-03-17T12:45:57.615Z,16.36
2023-03-17T12:49:58.141Z,16.39
2023-03-17T12:53:30.957Z,15.63
2023-03-17T12:56:46.797Z,16.57
2023-03-17T13:00:10.317Z,16.03
2023-03-17T13:03:29.066Z,16.19
2023-03-17T13:06:45.515Z,17.08
2023-03-17T13:10:13.412Z,17.36
2023-03-17T13:13:47.265Z,16.91
2023-03-17T13:17:28.941Z,16.85
2023-03-17T13:20:44.937Z,16.60
2023-03-17T13:24:21.825Z,17.76
2023-03-17T13:27:50.420Z,19.20
2023-03-17T13:31:13.378Z,18.18
2023-03-17T13:34:23.844Z,17.66
2023-03-17T13:37:43.923Z,17.33
2023-03-17T13:41:13.284Z,17.18
2023-03-17T13:44:49.605Z,17.40
2023-03-17T13:47:55.824Z,16.80
2023-03-17T13:51:23.515Z,17.61
2023-03-17T13:54:43.868Z,18.80
2023-03-17T13:58:18.590Z,18.16
2023-03-17T14:01:27.605Z,18.12
2023-03-17T14:04:53.639Z,18.70
2023-03-17T14:08:08.726Z,17.78
2023-03-17T14:11:29.796Z,17.64
2023-03-17T14:14:51.220Z,16.33
2023-03-17T14:18:08.368Z,16.77
2023-03-17T14:21:26.512Z,16.20
2023-03-17T14:24:37.279Z,16.66
2023-03-17T14:27:43.931Z,16.50
2023-03-17T14:30:57.597Z,15.10
2023-03-17T14:34:04.783Z,16.50
2023-03-17T14:37:16.007Z,16.96
2023-03-17T14:40:29.674Z,18.18
2023-03-17T14:43:39.655Z,17.92
2023-03-17T14:46:45.790Z,18.32
2023-03-17T14:49:59.748Z,17.58
2023-03-17T14:53:06.606Z,16.80
2023-03-17T14:56:16.964Z,17.51
2023-03-17T14:59:29.805Z,18.38
2023-03-17T15:02:42.515Z,18.63
2023-03-17T15:05:50.073Z,18.25
2023-03-17T15:08:57.511Z,19.43
2023-03-17T15:12:09.963Z,19.46
2023-03-17T15:15:28.053Z,19.11
2023-03-17T15:18:34.388Z,19.17
2023-03-17T15:21:45.658Z,18.39
2023-03-17T15:25:02.971Z,18.61
2023-03-17T15:28:20.099Z,19.32
2023-03-17T15:31:29.603Z,19.00
2023-03-17T15:34:36.632Z,18.70
2023-03-17T15:37:43.068Z,19.54
2023-03-17T15:40:50.165Z,19.74
2023-03-17T15:43:58.456Z,19.71
2023-03-17T15:47:05.839Z,19.97
2023-03-17T15:50:22.045Z,19.89
2023-03-17T15:53:29.152Z,20.42
2023-03-17T15:56:35.641Z,20.31
2023-03-17T15:59:44.925Z,20.84
2023-03-17T16:02:55.669Z,20.22
2023-03-17T16:06:02.694Z,21.00
2023-03-17T16:09:19.756Z,21.30
2023-03-17T16:12:27.822Z,21.24
2023-03-17T16:15:45.012Z,21.65
2023-03-17T16:18:55.317Z,22.27
2023-03-17T16:22:05.273Z,22.39
2023-03-17T16:25:25.586Z,22.91
2023-03-17T16:28:38.029Z,22.85
2023-03-17T16:31:51.983Z,23.77
2023-03-17T16:35:01.006Z,24.11
2023-03-17T16:38:13.743Z,23.93
2023-03-17T16:41:30.702Z,24.60
2023-03-17T16:44:40.875Z,25.50
2023-03-17T16:47:54.088Z,25.59
2023-03-17T16:51:02.150Z,25.86
2023-03-17T16:54:09.389Z,26.14
2023-03-17T16:57:17.077Z,26.02
2023-03-17T17:00:30.403Z,26.56
2023-03-17T17:03:40.960Z,26.65
2023-03-17T17:06:50.670Z,26.99
2023-03-17T17:09:59.586Z,27.31
2023-03-17T17:13:09.605Z,26.98
2023-03-17T17:16:30.389Z,27.37
2023-03-17T17:19:43.719Z,28.45
2023-03-17T17:22:51.047Z,28.31
2023-03-17T17:26:00.351Z,28.78
2023-03-17T17:29:16.121Z,29.25
2023-03-17T17:32:23.816Z,29.85
2023-03-17T17:35:36.188Z,29.24
2023-03-17T17:38:44.775Z,29.93
2023-03-17T17:41:54.373Z,29.22
2023-03-17T17:45:08.023Z,29.29
2023-03-17T17:48:18.311Z,29.42
2023-03-17T17:51:29.179Z,28.66
2023-03-17T17:54:36.694Z,28.99
2023-03-17T17:57:43.226Z,28.90
2023-03-17T18:00:52.742Z,28.34
2023-03-17T18:04:06.490Z,28.91
2023-03-17T18:07:15.837Z,28.86
2023-03-17T18:10:25.926Z,29.24
2023-03-17T18:13:32.648Z,29.29
2023-03-17T18:16:40.616Z,29.32
2023-03-17T18:19:47.763Z,29.24
2023-03-17T18:22:56.908Z,29.07
2023-03-17T18:26:06.119Z,29.07
2023-03-17T18:29:13.015Z,28.55
2023-03-17T18:32:19.812Z,29.04
2023-03-17T18:35:32.780Z,28.98
2023-03-17T18:38:43.875Z,29.31
2023-03-17T18:41:51.513Z,29.62
2023-03-17T18:55:39.638Z,30.21
2023-03-17T18:58:48.605Z,30.15
2023-03-17T19:01:54.701Z,29.45
2023-03-17T19:05:01.701Z,30.39
2023-03-17T19:08:08.363Z,29.77
2023-03-17T19:11:21.428Z,30.49
2023-03-17T19:14:27.713Z,30.73
2023-03-17T19:17:37.132Z,30.54
2023-03-17T19:20:42.983Z,31.63
2023-03-17T19:23:52.392Z,31.24
2023-03-17T19:27:00.796Z,31.39
2023-03-17T19:30:11.726Z,31.68
2023-03-17T19:33:18.993Z,32.05
2023-03-17T19:36:29.233Z,32.65
2023-03-17T19:39:39.296Z,32.67
2023-03-17T19:42:48.590Z,32.64
2023-03-17T19:45:54.739Z,32.57
2023-03-17T19:49:01.856Z,32.38
2023-03-17T19:52:08.044Z,31.92
2023-03-17T19:55:14.739Z,31.73
2023-03-17T19:58:23.308Z,31.93
2023-03-17T20:01:32.154Z,31.29
2023-03-17T20:04:38.097Z,30.82
2023-03-17T20:07:46.548Z,31.00
2023-03-17T20:10:58.822Z,31.37
2023-03-17T20:14:09.215Z,31.59
2023-03-17T20:17:15.599Z,31.13
2023-03-17T20:20:22.407Z,31.45
2023-03-17T20:23:28.862Z,32.00
2023-03-17T20:26:35.553Z,32.12
2023-03-17T20:29:46.748Z,32.92
2023-03-17T20:32:53.390Z,32.92
2023-03-17T20:35:59.683Z,33.20
2023-03-17T20:39:09.443Z,33.22
2023-03-17T20:42:20.443Z,33.42
2023-03-17T20:45:33.505Z,33.88
2023-03-17T20:48:48.791Z,33.81
2023-03-17T20:51:56.236Z,33.93
2023-03-17T20:55:02.942Z,33.97
2023-03-17T20:58:10.293Z,34.19
2023-03-17T21:01:21.524Z,34.32
2023-03-17T21:04:29.470Z,34.57
2023-03-17T21:07:35.374Z,34.73
2023-03-17T21:10:42.180Z,34.80
2023-03-17T21:13:48.703Z,35.03
2023-03-17T21:16:57.966Z,34.97
2023-03-17T21:20:05.157Z,34.79
2023-03-17T21:23:13.579Z,35.03
2023-03-17T21:26:20.219Z,35.07
2023-03-17T21:29:31.044Z,35.54
2023-03-17T21:32:39.957Z,35.65
2023-03-17T21:35:47.379Z,35.30
2023-03-17T21:38:53.905Z,35.39
2023-03-17T21:42:02.199Z,35.47
2023-03-17T21:45:12.264Z,35.84
2023-03-17T21:48:22.038Z,36.25
2023-03-17T21:51:30.375Z,36.67
2023-03-17T21:54:38.285Z,36.42
2023-03-17T21:57:45.287Z,36.98
2023-03-17T22:00:52.396Z,37.06
2023-03-17T22:04:02.618Z,37.05
2023-03-17T22:07:12.204Z,37.29
2023-03-17T22:10:18.846Z,37.64
2023-03-17T22:13:26.344Z,37.39
2023-03-17T22:16:33.160Z,37.49
2023-03-17T22:19:49.121Z,37.60
2023-03-17T22:23:02.014Z,37.85
2023-03-17T22:26:15.882Z,38.16
2023-03-17T22:29:23.887Z,38.27
2023-03-17T22:32:33.649Z,38.73
2023-03-17T22:35:42.899Z,38.79
2023-03-17T22:38:49.883Z,38.75
2023-03-17T22:41:55.799Z,38.56
2023-03-17T22:45:03.039Z,38.64
2023-03-17T22:48:11.029Z,38.54
2023-03-17T22:51:24.625Z,38.88
2023-03-17T22:54:30.453Z,39.07
2023-03-17T22:57:37.207Z,38.82
2023-03-17T23:00:43.188Z,38.80
2023-03-17T23:03:50.359Z,38.87
2023-03-17T23:06:59.218Z,38.94
2023-03-17T23:10:08.155Z,39.08
2023-03-17T23:13:14.296Z,39.04
2023-03-17T23:16:22.243Z,38.53
2023-03-17T23:19:28.032Z,38.58
2023-03-17T23:22:37.387Z,38.77
2023-03-17T23:25:43.786Z,38.96
2023-03-17T23:28:50.478Z,39.17
2023-03-17T23:31:56.324Z,39.20
2023-03-17T23:35:03.029Z,39.62
2023-03-17T23:38:11.513Z,39.67
2023-03-17T23:41:18.636Z,39.68
2023-03-17T23:44:24.619Z,40.22
2023-03-17T23:47:32.188Z,39.96
2023-03-17T23:50:38.342Z,40.16
2023-03-17T23:53:48.224Z,40.24
2023-03-17T23:56:54.424Z,39.79
